createdAt,value
2023-05-10T00:00:41.863Z,48.11
2023-05-10T00:03:10.009Z,47.83
2023-05-10T00:05:38.018Z,48.23
2023-05-10T00:08:06.374Z,47.86
2023-05-10T00:10:34.503Z,48.27
2023-05-10T00:13:04.638Z,48.48
2023-05-10T00:15:32.961Z,48.24
2023-05-10T00:18:01.087Z,48.36
2023-05-10T00:20:29.248Z,48.33
2023-05-10T00:22:57.281Z,48.54
2023-05-10T00:25:25.692Z,48.21
2023-05-10T00:27:56.462Z,48.42
2023-05-10T00:30:28.280Z,48.51
2023-05-10T00:32:56.981Z,48.31
2023-05-10T00:35:25.314Z,48.55
2023-05-10T00:37:53.485Z,48.23
2023-05-10T00:40:22.496Z,48.22
2023-05-10T00:42:55.731Z,48.51
2023-05-10T00:45:24.659Z,48.40
2023-05-10T00:47:56.471Z,48.78
2023-05-10T00:50:27.186Z,48.63
2023-05-10T00:52:55.354Z,48.34
2023-05-10T00:55:24.879Z,48.66
2023-05-10T00:57:54.593Z,48.62
2023-05-10T01:00:22.915Z,48.63
2023-05-10T01:02:51.725Z,48.60
2023-05-10T01:05:20.854Z,49.00
2023-05-10T01:07:51.476Z,48.84
2023-05-10T01:10:19.951Z,48.86
2023-05-10T01:12:49.053Z,48.72
2023-05-10T01:15:19.336Z,48.89
2023-05-10T01:17:50.978Z,48.67
2023-05-10T01:20:21.429Z,48.68
2023-05-10T01:23:05.895Z,48.69
2023-05-10T01:25:52.249Z,48.62
2023-05-10T01:28:23.710Z,48.64
2023-05-10T01:31:17.943Z,48.64
2023-05-10T01:33:53.933Z,48.57
2023-05-10T01:36:28.329Z,48.71
2023-05-10T01:39:07.737Z,48.69
2023-05-10T01:41:47.301Z,48.44
2023-05-10T01:44:25.032Z,48.42
2023-05-10T01:47:24.958Z,48.29
2023-05-10T01:49:56.978Z,48.32
2023-05-10T01:52:35.127Z,48.28
2023-05-10T01:55:07.742Z,47.86
2023-05-10T01:57:40.924Z,47.80
2023-05-10T02:00:10.957Z,48.04
2023-05-10T02:02:52.353Z,47.56
2023-05-10T02:05:22.079Z,47.60
2023-05-10T02:07:51.780Z,47.54
2023-05-10T02:10:21.169Z,47.61
2023-05-10T02:12:51.386Z,47.90
2023-05-10T02:15:24.235Z,47.74
2023-05-10T02:17:55.957Z,47.33
2023-05-10T02:20:26.339Z,47.23
2023-05-10T02:23:02.448Z,47.09
2023-05-10T02:25:33.101Z,46.96
2023-05-10T02:28:03.931Z,46.80
2023-05-10T02:30:34.733Z,46.89
2023-05-10T02:33:07.347Z,47.08
2023-05-10T02:35:36.847Z,47.15
2023-05-10T02:38:06.560Z,47.20
2023-05-10T02:40:36.097Z,47.33
2023-05-10T02:43:07.419Z,47.45
2023-05-10T02:45:40.281Z,46.95
2023-05-10T02:48:09.199Z,47.20
2023-05-10T02:50:41.066Z,47.31
2023-05-10T02:53:17.111Z,47.71
2023-05-10T02:55:50.885Z,47.59
2023-05-10T02:58:20.977Z,47.55
2023-05-10T03:00:49.592Z,47.56
2023-05-10T03:03:18.428Z,47.86
2023-05-10T03:05:46.741Z,47.29
2023-05-10T03:08:14.975Z,47.60
2023-05-10T03:11:04.999Z,47.61
2023-05-10T03:13:50.726Z,47.57
2023-05-10T03:16:26.900Z,48.02
2023-05-10T03:19:16.791Z,47.81
2023-05-10T03:21:51.681Z,48.01
2023-05-10T03:24:26.563Z,48.12
2023-05-10T03:26:58.418Z,48.29
2023-05-10T03:29:28.688Z,48.15
2023-05-10T03:31:57.069Z,47.93
2023-05-10T03:34:28.812Z,47.96
2023-05-10T03:36:58.443Z,47.71
2023-05-10T03:39:28.426Z,47.38
2023-05-10T03:41:59.637Z,47.30
2023-05-10T03:44:29.666Z,46.91
2023-05-10T03:46:58.252Z,46.66
2023-05-10T03:49:26.473Z,46.46
2023-05-10T03:51:54.695Z,45.99
2023-05-10T03:54:23.029Z,46.31
2023-05-10T03:56:54.245Z,45.46
2023-05-10T03:59:23.599Z,45.13
2023-05-10T04:01:54.045Z,44.70
2023-05-10T04:04:24.445Z,44.68
2023-05-10T04:06:52.460Z,44.65
2023-05-10T04:09:25.160Z,44.66
2023-05-10T04:11:54.901Z,44.40
2023-05-10T04:14:23.097Z,43.89
2023-05-10T04:16:51.596Z,43.86
2023-05-10T04:19:19.797Z,43.37
2023-05-10T04:21:47.944Z,43.78
2023-05-10T04:24:16.158Z,42.80
2023-05-10T04:26:44.320Z,43.04
2023-05-10T04:29:12.558Z,42.54
2023-05-10T04:31:43.805Z,42.39
2023-05-10T04:34:12.237Z,41.91
2023-05-10T04:36:40.372Z,42.16
2023-05-10T04:39:08.470Z,42.09
2023-05-10T04:41:36.505Z,41.35
2023-05-10T04:44:07.683Z,41.63
2023-05-10T04:46:35.952Z,41.09
2023-05-10T04:49:03.835Z,41.51
2023-05-10T04:51:32.747Z,41.09
2023-05-10T04:54:06.544Z,40.94
2023-05-10T04:56:34.916Z,41.33
2023-05-10T04:59:02.784Z,40.82
2023-05-10T05:01:30.790Z,41.31
2023-05-10T05:04:00.829Z,40.83
2023-05-10T05:06:28.834Z,40.74
2023-05-10T05:08:56.765Z,40.41
2023-05-10T05:11:24.732Z,40.21
2023-05-10T05:13:52.800Z,40.89
2023-05-10T05:16:21.240Z,40.94
2023-05-10T05:18:49.867Z,44.49
2023-05-10T05:21:19.334Z,41.93
2023-05-10T05:23:47.713Z,42.10
2023-05-10T05:26:16.226Z,44.95
2023-05-10T05:28:44.483Z,44.17
2023-05-10T05:31:12.747Z,42.97
2023-05-10T05:33:41.200Z,42.82
2023-05-10T05:36:09.642Z,42.30
2023-05-10T05:38:37.893Z,42.12
2023-05-10T05:41:07.133Z,41.45
2023-05-10T05:43:38.052Z,41.09
2023-05-10T05:46:06.482Z,40.64
2023-05-10T05:48:34.588Z,40.70
2023-05-10T05:51:02.991Z,41.25
2023-05-10T05:53:31.813Z,40.98
2023-05-10T05:56:00.459Z,41.74
2023-05-10T05:58:28.473Z,40.64
2023-05-10T06:00:56.251Z,40.94
2023-05-10T06:03:24.232Z,40.35
2023-05-10T06:05:52.168Z,40.51
2023-05-10T06:08:20.291Z,39.57
2023-05-10T06:10:48.299Z,38.81
2023-05-10T06:13:17.827Z,39.78
2023-05-10T06:15:45.847Z,39.37
2023-05-10T06:18:13.793Z,39.42
2023-05-10T06:20:44.034Z,39.02
2023-05-10T06:23:13.012Z,38.82
2023-05-10T06:25:41.552Z,39.09
2023-05-10T06:28:09.679Z,39.56
2023-05-10T06:30:38.119Z,39.10
2023-05-10T06:33:07.270Z,39.26
2023-05-10T06:35:35.442Z,38.97
2023-05-10T06:38:04.386Z,39.39
2023-05-10T06:40:32.392Z,38.82
2023-05-10T06:43:00.515Z,38.87
2023-05-10T06:45:28.735Z,38.98
2023-05-10T06:47:56.546Z,38.97
2023-05-10T06:50:24.415Z,39.20
2023-05-10T06:52:53.144Z,38.67
2023-05-10T06:55:21.415Z,38.52
2023-05-10T06:57:49.177Z,38.68
2023-05-10T07:00:17.967Z,38.60
2023-05-10T07:02:46.512Z,38.90
2023-05-10T07:05:15.574Z,38.66
2023-05-10T07:07:43.695Z,38.56
2023-05-10T07:10:11.758Z,39.03
2023-05-10T07:12:39.701Z,38.75
2023-05-10T07:15:15.089Z,38.84
2023-05-10T07:17:44.135Z,38.68
2023-05-10T07:20:13.983Z,39.04
2023-05-10T07:22:41.856Z,39.18
2023-05-10T07:25:09.632Z,38.96
2023-05-10T07:27:37.853Z,39.19
2023-05-10T07:30:06.356Z,39.11
2023-05-10T07:32:34.362Z,39.25
2023-05-10T07:35:02.373Z,39.15
2023-05-10T07:37:30.490Z,39.29
2023-05-10T07:39:58.549Z,39.09
2023-05-10T07:42:27.293Z,39.19
2023-05-10T07:44:55.352Z,38.79
2023-05-10T07:47:23.342Z,38.78
2023-05-10T07:49:51.229Z,38.64
2023-05-10T07:52:21.224Z,39.23
2023-05-10T07:54:50.239Z,38.82
2023-05-10T07:57:19.391Z,39.04
2023-05-10T07:59:47.985Z,38.74
2023-05-10T08:02:15.887Z,38.65
2023-05-10T08:04:43.917Z,38.90
2023-05-10T08:07:12.506Z,38.60
2023-05-10T08:09:40.640Z,38.00
2023-05-10T08:12:08.558Z,38.41
2023-05-10T08:14:38.108Z,38.35
2023-05-10T08:17:06.178Z,38.26
2023-05-10T08:19:34.172Z,38.71
2023-05-10T08:22:02.086Z,38.32
2023-05-10T08:24:30.017Z,38.43
2023-05-10T08:26:58.666Z,38.30
2023-05-10T08:29:28.415Z,38.47
2023-05-10T08:31:58.549Z,38.58
2023-05-10T08:34:26.476Z,38.33
2023-05-10T08:36:54.716Z,38.30
2023-05-10T08:39:29.814Z,37.76
2023-05-10T08:42:03.388Z,37.79
2023-05-10T08:44:33.989Z,37.62
2023-05-10T08:47:05.979Z,37.35
2023-05-10T08:49:35.062Z,37.40
2023-05-10T08:52:06.630Z,36.96
2023-05-10T08:54:35.158Z,37.32
2023-05-10T08:57:03.188Z,37.27
2023-05-10T08:59:31.941Z,37.73
2023-05-10T09:02:01.317Z,37.79
2023-05-10T09:04:30.820Z,38.07
2023-05-10T09:06:59.148Z,37.78
2023-05-10T09:09:28.616Z,37.87
2023-05-10T09:11:57.156Z,37.58
2023-05-10T09:14:26.597Z,38.02
2023-05-10T09:16:56.615Z,37.87
2023-05-10T09:19:24.844Z,37.49
2023-05-10T09:21:53.010Z,37.57
2023-05-10T09:24:21.129Z,37.81
2023-05-10T09:26:50.097Z,37.70
2023-05-10T09:29:18.409Z,38.03
2023-05-10T09:31:55.901Z,38.28
2023-05-10T09:34:33.780Z,39.52
2023-05-10T09:37:04.052Z,39.49
2023-05-10T09:39:36.476Z,40.61
2023-05-10T09:42:12.338Z,40.59
2023-05-10T09:44:42.315Z,41.04
2023-05-10T09:47:10.580Z,41.11
2023-05-10T09:49:39.160Z,41.73
2023-05-10T09:52:09.200Z,41.91
2023-05-10T09:54:37.665Z,41.82
2023-05-10T09:57:08.256Z,42.03
2023-05-10T09:59:37.518Z,42.46
2023-05-10T10:02:05.933Z,42.18
2023-05-10T10:04:40.259Z,42.43
2023-05-10T10:07:08.161Z,43.10
2023-05-10T10:09:36.539Z,43.14
2023-05-10T10:12:06.239Z,43.42
2023-05-10T10:14:35.836Z,43.22
2023-05-10T10:17:08.210Z,43.22
2023-05-10T10:19:38.198Z,43.50
2023-05-10T10:22:07.645Z,43.54
2023-05-10T10:24:38.243Z,43.84
2023-05-10T10:27:14.123Z,44.24
2023-05-10T10:29:57.696Z,44.15
2023-05-10T10:32:52.473Z,44.76
2023-05-10T10:35:22.509Z,44.33
2023-05-10T10:37:52.812Z,44.99
2023-05-10T10:44:51.029Z,45.72
2023-05-10T10:51:16.869Z,45.77
2023-05-10T10:54:14.507Z,45.70
2023-05-10T10:57:34.384Z,45.19
2023-05-10T11:08:04.652Z,44.98
2023-05-10T11:13:51.491Z,44.88
2023-05-10T11:16:23.391Z,44.76
2023-05-10T11:22:15.424Z,44.77
2023-05-10T11:24:59.030Z,44.33
2023-05-10T11:27:27.854Z,44.28
2023-05-10T11:29:56.364Z,43.95
2023-05-10T11:32:24.915Z,43.67
2023-05-10T11:34:52.971Z,43.52
2023-05-10T11:37:21.312Z,43.88
2023-05-10T11:39:51.052Z,44.17
2023-05-10T11:42:19.152Z,43.97
2023-05-10T11:44:48.591Z,44.25
2023-05-10T11:47:17.113Z,43.89
2023-05-10T11:49:46.470Z,44.01
2023-05-10T11:52:14.846Z,43.98
2023-05-10T11:54:56.557Z,44.29
2023-05-10T11:57:28.309Z,44.28
2023-05-10T11:59:59.509Z,44.31
2023-05-10T12:02:29.115Z,44.27
2023-05-10T12:04:58.242Z,44.14
2023-05-10T12:07:28.215Z,44.29
2023-05-10T12:10:10.928Z,44.19
2023-05-10T12:12:39.262Z,44.20
2023-05-10T12:15:11.957Z,43.85
2023-05-10T12:17:43.466Z,44.03
2023-05-10T12:20:23.157Z,44.16
2023-05-10T12:23:00.651Z,43.78
2023-05-10T12:25:36.797Z,44.10
2023-05-10T12:30:54.772Z,44.12
2023-05-10T12:33:22.891Z,44.30
2023-05-10T12:35:53.287Z,44.18
2023-05-10T12:38:44.946Z,44.26
2023-05-10T12:41:16.704Z,44.05
2023-05-10T12:43:45.905Z,43.82
2023-05-10T12:46:16.676Z,44.13
2023-05-10T12:48:46.871Z,44.46
2023-05-10T12:51:17.235Z,44.22
2023-05-10T12:53:56.583Z,44.03
2023-05-10T12:56:29.162Z,44.12
2023-05-10T12:58:57.344Z,44.17
2023-05-10T13:01:25.355Z,43.78
2023-05-10T13:03:53.495Z,43.97
2023-05-10T13:06:21.960Z,43.33
2023-05-10T13:08:50.524Z,43.46
2023-05-10T13:11:21.250Z,43.45
2023-05-10T13:13:49.604Z,43.48
2023-05-10T13:16:17.891Z,43.01
2023-05-10T13:18:46.147Z,43.40
2023-05-10T13:21:14.433Z,43.51
2023-05-10T13:23:42.569Z,43.42
2023-05-10T13:26:11.074Z,43.32
2023-05-10T13:28:40.391Z,43.29
2023-05-10T13:31:09.077Z,43.39
2023-05-10T13:33:37.416Z,43.21
2023-05-10T13:36:06.031Z,42.97
2023-05-10T13:38:34.291Z,43.14
2023-05-10T13:41:02.544Z,42.63
2023-05-10T13:43:31.180Z,42.65
2023-05-10T13:46:07.037Z,42.46
2023-05-10T13:48:41.081Z,42.38
2023-05-10T13:51:09.739Z,42.68
2023-05-10T13:53:42.638Z,45.86
2023-05-10T13:56:11.704Z,44.75
2023-05-10T13:58:39.998Z,44.10
2023-05-10T14:01:09.450Z,44.12
2023-05-10T14:03:37.426Z,44.13
2023-05-10T14:06:05.974Z,43.82
2023-05-10T14:08:33.943Z,43.19
2023-05-10T14:11:02.142Z,42.93
2023-05-10T14:13:30.343Z,43.78
2023-05-10T14:15:58.470Z,43.56
2023-05-10T14:18:27.727Z,43.40
2023-05-10T14:20:56.619Z,42.78
2023-05-10T14:23:28.078Z,43.38
2023-05-10T14:25:56.504Z,43.26
2023-05-10T14:28:25.165Z,43.42
2023-05-10T14:30:53.364Z,43.49
2023-05-10T14:33:22.383Z,43.17
2023-05-10T14:35:50.593Z,42.98
2023-05-10T14:38:18.694Z,43.04
2023-05-10T14:40:46.561Z,43.22
2023-05-10T14:43:14.677Z,43.41
2023-05-10T14:45:43.182Z,43.80
2023-05-10T14:48:13.643Z,43.71
2023-05-10T14:50:41.754Z,43.79
2023-05-10T14:53:09.672Z,43.90
2023-05-10T14:55:38.366Z,44.21
2023-05-10T14:58:06.660Z,43.95
2023-05-10T15:00:34.909Z,44.00
2023-05-10T15:03:06.292Z,43.59
2023-05-10T15:05:35.309Z,42.82
2023-05-10T15:08:04.260Z,43.25
2023-05-10T15:10:34.607Z,43.56
2023-05-10T15:13:03.765Z,43.43
2023-05-10T15:15:32.184Z,43.56
2023-05-10T15:18:00.376Z,43.54
2023-05-10T15:20:28.471Z,43.66
2023-05-10T15:22:56.548Z,43.23
2023-05-10T15:25:25.181Z,43.34
2023-05-10T15:27:53.247Z,43.38
2023-05-10T15:30:21.904Z,43.32
2023-05-10T15:32:50.305Z,43.85
2023-05-10T15:35:19.027Z,43.62
2023-05-10T15:37:49.862Z,43.51
2023-05-10T15:40:18.332Z,43.65
2023-05-10T15:42:46.959Z,43.77
2023-05-10T15:45:16.639Z,43.42
2023-05-10T15:47:46.357Z,43.50
2023-05-10T15:50:15.566Z,42.91
2023-05-10T15:52:43.604Z,43.43
2023-05-10T15:55:13.438Z,43.52
2023-05-10T15:57:43.459Z,43.73
2023-05-10T16:00:14.787Z,43.62
2023-05-10T16:02:43.443Z,43.82
2023-05-10T16:05:12.100Z,44.28
2023-05-10T16:07:42.160Z,44.68
2023-05-10T16:23:55.089Z,44.23
2023-05-10T16:26:23.158Z,43.96
2023-05-10T16:28:51.350Z,44.12
2023-05-10T16:31:20.771Z,44.07
2023-05-10T16:33:48.999Z,43.52
2023-05-10T16:36:16.950Z,43.40
2023-05-10T16:38:47.581Z,42.96
2023-05-10T16:41:15.368Z,43.58
2023-05-10T16:43:43.154Z,43.68
2023-05-10T16:46:14.620Z,45.80
2023-05-10T16:48:44.094Z,45.56
2023-05-10T16:51:12.519Z,44.69
2023-05-10T16:53:40.726Z,43.70
2023-05-10T16:56:08.620Z,43.85
2023-05-10T16:58:36.729Z,44.05
2023-05-10T17:01:05.349Z,43.91
2023-05-10T17:03:33.973Z,44.27
2023-05-10T17:06:01.945Z,45.90
2023-05-10T17:08:32.518Z,45.26
2023-05-10T17:11:04.528Z,45.53
2023-05-10T17:13:32.446Z,45.41
2023-05-10T17:16:04.997Z,44.64
2023-05-10T17:18:33.427Z,44.49
2023-05-10T17:21:01.893Z,44.33
2023-05-10T17:23:30.464Z,44.45
2023-05-10T17:26:00.254Z,45.85
2023-05-10T17:28:29.319Z,45.16
2023-05-10T17:30:58.292Z,44.61
2023-05-10T17:33:26.665Z,44.67
2023-05-10T17:35:55.921Z,45.16
2023-05-10T17:38:23.706Z,44.42
2023-05-10T17:40:57.249Z,44.15
2023-05-10T17:43:26.177Z,43.60
2023-05-10T17:45:54.199Z,43.03
2023-05-10T17:48:22.335Z,43.45
2023-05-10T17:50:51.545Z,43.48
2023-05-10T17:53:19.671Z,43.57
2023-05-10T17:55:47.603Z,43.65
2023-05-10T17:58:15.657Z,43.57
2023-05-10T18:00:43.577Z,43.18
2023-05-10T18:03:11.723Z,43.42
2023-05-10T18:05:39.775Z,43.75
2023-05-10T18:08:07.746Z,43.49
2023-05-10T18:10:38.175Z,43.62
2023-05-10T18:13:08.886Z,43.49
2023-05-10T18:15:37.423Z,43.26
2023-05-10T18:18:07.118Z,43.47
2023-05-10T18:20:35.163Z,43.65
2023-05-10T18:23:03.738Z,43.38
2023-05-10T18:25:31.598Z,43.64
2023-05-10T18:28:05.096Z,43.95
2023-05-10T18:30:41.402Z,43.59
2023-05-10T18:33:14.835Z,43.40
2023-05-10T18:35:53.102Z,43.43
2023-05-10T18:38:29.296Z,43.48
2023-05-10T18:41:07.093Z,43.48
2023-05-10T18:43:46.195Z,42.89
2023-05-10T18:46:29.019Z,43.34
2023-05-10T18:49:02.786Z,43.32
2023-05-10T18:51:38.375Z,42.52
2023-05-10T18:54:09.441Z,42.66
2023-05-10T18:56:51.390Z,42.30
2023-05-10T18:59:19.892Z,42.59
2023-05-10T19:01:50.859Z,42.72
2023-05-10T19:04:38.039Z,42.58
2023-05-10T19:07:06.646Z,42.74
2023-05-10T19:09:35.046Z,42.68
2023-05-10T19:12:11.964Z,42.73
2023-05-10T19:14:45.061Z,42.34
2023-05-10T19:17:23.448Z,42.33
2023-05-10T19:20:06.539Z,42.34
2023-05-10T19:22:57.954Z,42.11
2023-05-10T19:25:49.967Z,42.04
2023-05-10T19:28:31.549Z,42.10
2023-05-10T19:30:59.408Z,42.03
2023-05-10T19:33:27.432Z,42.12
2023-05-10T19:35:55.891Z,41.94
2023-05-10T19:38:24.591Z,42.42
2023-05-10T19:40:58.709Z,41.76
2023-05-10T19:43:33.411Z,41.91
2023-05-10T19:46:03.735Z,41.91
2023-05-10T19:48:32.477Z,41.70
2023-05-10T19:51:06.352Z,42.20
2023-05-10T19:53:37.786Z,42.02
2023-05-10T19:56:06.961Z,42.09
2023-05-10T19:58:43.054Z,41.83
2023-05-10T20:01:13.379Z,42.01
2023-05-10T20:03:41.226Z,44.91
2023-05-10T20:06:09.156Z,43.62
2023-05-10T20:08:37.253Z,42.88
2023-05-10T20:11:07.800Z,42.46
2023-05-10T20:13:35.932Z,42.36
2023-05-10T20:16:05.344Z,42.63
2023-05-10T20:18:36.652Z,42.53
2023-05-10T20:21:06.544Z,42.28
2023-05-10T20:23:34.719Z,42.42
2023-05-10T20:26:12.751Z,42.17
2023-05-10T20:28:44.440Z,42.01
2023-05-10T20:31:15.846Z,42.20
2023-05-10T20:33:43.840Z,42.50
2023-05-10T20:36:11.821Z,42.56
2023-05-10T20:38:39.927Z,42.41
2023-05-10T20:41:09.002Z,42.47
2023-05-10T20:43:37.077Z,42.46
2023-05-10T20:46:06.062Z,42.28
2023-05-10T20:48:34.563Z,42.41
2023-05-10T20:51:02.942Z,42.21
2023-05-10T20:53:34.644Z,42.38
2023-05-10T20:56:02.701Z,42.33
2023-05-10T20:58:42.880Z,42.26
2023-05-10T21:01:11.871Z,42.40
2023-05-10T21:03:41.351Z,42.47
2023-05-10T21:06:09.528Z,42.21
2023-05-10T21:08:37.520Z,42.41
2023-05-10T21:11:07.046Z,42.42
2023-05-10T21:13:48.887Z,43.13
2023-05-10T21:16:31.655Z,43.39
2023-05-10T21:19:09.660Z,42.82
2023-05-10T21:21:38.776Z,42.67
2023-05-10T21:24:07.369Z,43.15
2023-05-10T21:26:36.189Z,42.83
2023-05-10T21:29:07.909Z,43.08
2023-05-10T21:31:38.557Z,42.88
2023-05-10T21:34:08.605Z,43.12
2023-05-10T21:36:36.983Z,43.28
2023-05-10T21:39:08.240Z,43.38
2023-05-10T21:41:36.508Z,43.28
2023-05-10T21:46:47.598Z,43.45
2023-05-10T21:49:35.415Z,43.68
2023-05-10T21:52:04.198Z,43.29
2023-05-10T21:54:36.339Z,43.34
2023-05-10T21:57:07.154Z,43.17
2023-05-10T21:59:36.094Z,43.15
2023-05-10T22:02:05.258Z,42.97
2023-05-10T22:04:38.107Z,43.04
2023-05-10T22:07:10.838Z,43.52
2023-05-10T22:09:41.543Z,43.94
2023-05-10T22:12:10.024Z,43.67
2023-05-10T22:14:41.476Z,43.39
2023-05-10T22:17:10.640Z,43.04
2023-05-10T22:19:39.982Z,43.29
2023-05-10T22:22:10.014Z,42.93
2023-05-10T22:24:38.036Z,43.20
2023-05-10T22:27:07.686Z,43.41
2023-05-10T22:29:38.121Z,43.48
2023-05-10T22:32:07.005Z,43.52
2023-05-10T22:34:36.315Z,43.22
2023-05-10T22:37:04.659Z,43.66
2023-05-10T22:39:32.391Z,43.26
2023-05-10T22:42:00.466Z,43.32
2023-05-10T22:44:28.759Z,43.09
2023-05-10T22:46:56.880Z,43.60
2023-05-10T22:49:28.069Z,43.56
2023-05-10T22:51:57.650Z,43.81
2023-05-10T22:54:29.426Z,43.73
2023-05-10T22:56:58.625Z,43.69
2023-05-10T22:59:29.810Z,43.61
2023-05-10T23:01:58.206Z,43.52
2023-05-10T23:04:35.819Z,43.37
2023-05-10T23:07:05.400Z,43.21
2023-05-10T23:09:35.772Z,43.25
2023-05-10T23:12:05.139Z,43.32
2023-05-10T23:14:33.317Z,43.32
2023-05-10T23:17:01.304Z,43.03
2023-05-10T23:19:29.552Z,43.24
2023-05-10T23:21:57.627Z,43.30
2023-05-10T23:24:26.656Z,43.41
2023-05-10T23:26:55.030Z,43.01
2023-05-10T23:29:24.334Z,43.19
2023-05-10T23:31:55.612Z,43.47
2023-05-10T23:34:30.155Z,43.42
2023-05-10T23:36:58.346Z,43.38
2023-05-10T23:39:26.602Z,43.57
2023-05-10T23:41:58.233Z,43.60
2023-05-10T23:44:29.416Z,43.80
2023-05-10T23:46:58.143Z,43.49
2023-05-10T23:49:27.742Z,43.59
2023-05-10T23:51:55.902Z,43.49
2023-05-10T23:54:24.261Z,43.57
2023-05-10T23:56:54.453Z,43.50
2023-05-10T23:59:25.351Z,43.69
